Time;durP1;ratioP1;P1;durP2;ratioP2;P2;SDS_P1;SDS_P2;PMS_P1;PMS_P2;Temp;Humidity;BMP_temperature;BMP_pressure;BME280_temperature;BME280_humidity;BME280_pressure;Samples;Min_cycle;Max_cycle;Signal;HPM_P1;HPM_P2
2024/02/01 00:04:44;;;;;;;1.38;0.80;;;9.70;99.90;;;;;;4840321;24;20161;-95
2024/02/01 00:07:17;;;;;;;2.45;1.10;;;9.70;99.90;;;;;;4882753;24;20186;-95
2024/02/01 00:20:35;;;;;;;2.40;1.30;;;9.60;99.90;;;;;;4718398;24;20319;-93
2024/02/01 00:29:38;;;;;;;7.13;1.27;;;9.60;99.90;;;;;;4767558;24;20174;-96
2024/02/01 00:32:15;;;;;;;2.65;1.05;;;9.60;99.90;;;;;;4791390;24;20165;-95
2024/02/01 00:34:45;;;;;;;8.02;1.35;;;9.60;99.90;;;;;;4814973;24;20164;-95
2024/02/01 00:36:53;;;;;;;2.60;1.10;;;9.50;99.90;;;;;;4813790;24;20179;-94
2024/02/01 00:39:02;;;;;;;2.17;1.05;;;9.40;99.90;;;;;;4881531;24;20165;-95
2024/02/01 00:41:18;;;;;;;7.28;1.67;;;9.50;99.90;;;;;;4899244;24;20194;-94
2024/02/01 00:43:38;;;;;;;3.03;1.58;;;9.50;99.90;;;;;;4906642;24;20166;-95
2024/02/01 00:46:01;;;;;;;7.40;1.80;;;9.50;99.90;;;;;;4904859;24;20190;-95
2024/02/01 00:48:22;;;;;;;4.05;1.60;;;9.60;99.90;;;;;;4867766;24;20165;-93
2024/02/01 00:50:51;;;;;;;2.78;1.00;;;9.60;99.90;;;;;;4927713;24;20635;-95
2024/02/01 00:52:59;;;;;;;5.90;1.48;;;9.40;99.90;;;;;;4912165;23;20162;-94
2024/02/01 00:55:11;;;;;;;2.92;1.42;;;9.40;99.90;;;;;;4997405;23;20202;-94
2024/02/01 00:57:23;;;;;;;2.67;1.27;;;9.40;99.90;;;;;;5020452;23;20170;-94
2024/02/01 00:59:55;;;;;;;5.85;1.23;;;9.50;99.90;;;;;;4999215;23;20166;-95
2024/02/01 01:03:05;;;;;;;4.22;1.92;;;9.70;99.90;;;;;;4993271;23;20199;-94
2024/02/01 01:12:02;;;;;;;;;;;;;;;;;;;;;
2024/02/01 01:14:28;;;;;;;3.53;1.33;;;9.40;99.90;;;;;;4904572;24;20254;-94
2024/02/01 01:22:42;;;;;;;;;;;;;;;;;;;;;
2024/02/01 01:28:34;;;;;;;3.70;2.10;;;9.30;99.90;;;;;;4970053;23;20178;-94
2024/02/01 01:37:44;;;;;;;;;;;;;;;;;;;;;
2024/02/01 01:40:28;;;;;;;3.38;1.80;;;9.40;99.90;;;;;;4944621;24;20180;-93
2024/02/01 01:46:09;;;;;;;4.55;2.17;;;9.20;99.90;;;;;;4859345;24;20366;-95
2024/02/01 01:48:44;;;;;;;;;;;;;;;;;;;;;
2024/02/01 01:51:46;;;;;;;4.22;1.58;;;9.10;99.90;;;;;;4859480;24;20245;-94
2024/02/01 01:57:09;;;;;;;2.75;1.58;;;9.20;99.90;;;;;;4904586;24;20199;-94
2024/02/01 01:59:31;;;;;;;5.53;1.60;;;9.10;99.90;;;;;;4905222;24;20158;-94
2024/02/01 02:02:36;;;;;;;3.55;1.48;;;9.20;99.90;;;;;;4907320;24;20209;-95
2024/02/01 02:05:27;;;;;;;2.78;1.65;;;9.30;99.90;;;;;;4928562;24;20161;-93
2024/02/01 02:07:56;;;;;;;7.47;2.08;;;9.30;99.90;;;;;;4929076;24;20702;-93
2024/02/01 02:13:29;;;;;;;2.38;1.42;;;9.30;99.90;;;;;;4944466;24;20156;-94
2024/02/01 02:16:26;;;;;;;6.45;1.77;;;9.30;99.90;;;;;;5046445;23;20593;-95
2024/02/01 02:19:42;;;;;;;;;;;;;;;;;;;;;
2024/02/01 02:23:03;;;;;;;2.92;1.40;;;9.50;99.90;;;;;;5022009;23;20214;-95
2024/02/01 02:28:45;;;;;;;;;;;;;;;;;;;;;
2024/02/01 02:38:49;;;;;;;2.40;1.30;;;9.50;99.90;;;;;;4824431;24;20191;-94
2024/02/01 02:45:31;;;;;;;3.00;1.42;;;9.60;99.90;;;;;;4791357;24;20178;-95
2024/02/01 02:56:01;;;;;;;;;;;;;;;;;;;;;
2024/02/01 05:41:59;;;;;;;7.63;0.77;;;10.60;99.90;;;;;;5047576;23;20216;-94
2024/02/01 05:47:54;;;;;;;5.40;0.73;;;10.30;99.90;;;;;;5020247;23;20178;-94
2024/02/01 05:50:35;;;;;;;1.30;0.85;;;10.50;99.90;;;;;;4931879;24;20533;-95
2024/02/01 05:53:29;;;;;;;13.82;1.10;;;10.80;99.90;;;;;;5047870;23;20208;-94
2024/02/01 05:56:20;;;;;;;3.20;0.73;;;10.80;99.90;;;;;;5024557;23;20151;-96
2024/02/01 05:59:02;;;;;;;;;;;;;;;;;;;;;
2024/02/01 06:01:32;;;;;;;7.95;0.93;;;10.40;99.90;;;;;;5048806;23;20158;-95
2024/02/01 06:04:24;;;;;;;;;;;;;;;;;;;;;
2024/02/01 06:06:59;;;;;;;5.10;0.77;;;9.70;99.90;;;;;;5034060;23;20182;-95
2024/02/01 06:09:00;;;;;;;7.85;1.48;;;9.60;99.90;;;;;;5024022;23;20158;-94
2024/02/01 06:11:01;;;;;;;2.70;0.63;;;9.50;99.90;;;;;;5022663;23;20170;-94
2024/02/01 06:13:02;;;;;;;3.17;0.52;;;9.50;99.90;;;;;;5021633;23;20162;-94
2024/02/01 06:15:05;;;;;;;6.22;0.55;;;9.40;99.90;;;;;;5022238;23;20182;-93
2024/02/01 06:17:06;;;;;;;6.18;0.82;;;9.30;99.90;;;;;;5022176;23;20257;-93
2024/02/01 06:19:07;;;;;;;2.05;0.93;;;9.30;99.90;;;;;;5021917;23;20166;-93
2024/02/01 06:21:14;;;;;;;7.03;1.00;;;9.30;99.90;;;;;;5023919;23;20155;-94
2024/02/01 06:23:15;;;;;;;7.63;1.15;;;9.10;99.90;;;;;;5045554;23;20166;-93
2024/02/01 06:25:40;;;;;;;5.28;0.82;;;9.20;99.90;;;;;;5045393;23;20166;-93
2024/02/01 06:27:41;;;;;;;6.82;1.25;;;9.30;99.90;;;;;;5045133;23;20189;-92
2024/02/01 06:29:42;;;;;;;17.98;1.50;;;9.20;99.90;;;;;;5022255;23;20475;-93
2024/02/01 11:28:48;;;;;;;4.07;0.88;;;9.90;99.90;;;;;;5040896;23;20194;-91
2024/02/01 11:30:52;;;;;;;8.00;0.50;;;9.90;99.90;;;;;;5001421;23;20189;-95
2024/02/01 11:44:40;;;;;;;5.45;0.52;;;9.80;99.90;;;;;;5061818;23;20189;-94
2024/02/01 12:10:30;;;;;;;;;;;;;;;;;;;;;
2024/02/01 12:17:03;;;;;;;11.10;0.55;;;10.50;99.90;;;;;;4977275;23;20304;-94
2024/02/01 13:05:30;;;;;;;7.70;1.10;;;11.20;99.90;;;;;;5046195;23;20208;-94
2024/02/01 13:08:52;;;;;;;1.70;0.52;;;11.50;99.90;;;;;;5039555;23;20236;-95
2024/02/01 13:11:42;;;;;;;7.93;0.80;;;11.30;99.90;;;;;;5049583;23;20154;-93
2024/02/01 13:14:57;;;;;;;;;;;;;;;;;;;;;
2024/02/01 13:23:52;;;;;;;4.95;1.02;;;11.30;99.90;;;;;;4995394;23;20257;-95
2024/02/01 13:26:36;;;;;;;8.25;1.33;;;11.20;99.90;;;;;;5009384;23;20158;-94
2024/02/01 13:30:05;;;;;;;;;;;;;;;;;;;;;
2024/02/01 13:32:26;;;;;;;1.08;0.47;;;11.30;99.90;;;;;;5048410;23;20158;-90
2024/02/01 13:34:30;;;;;;;2.50;0.73;;;11.30;99.90;;;;;;5023990;23;20139;-92
2024/02/01 13:36:31;;;;;;;10.38;1.30;;;11.50;99.90;;;;;;5021888;23;20534;-93
2024/02/01 13:38:38;;;;;;;5.07;0.40;;;11.50;99.90;;;;;;5002159;23;20182;-93
2024/02/01 13:52:40;;;;;;;;;;;;;;;;;;;;;
2024/02/01 14:28:47;;;;;;;;;;;;;;;;;;;;;
